Port Hardy, Canada
Current Conditions -  °F | °C
As of 7:00 AM on Monday 24 Nov 2014 (Local Time) from CYZT Reporting Station
Light Rain Light Rain  
Wind Chill: 37°   Ceiling: 3500
Heat Index: 45°   Visibility: 15mi
Dew Point: 43°   Wind: 18mph
Humidity: 93%   Direction: 100°E
Pressure: 30.04"   Gusts: 26mph
Location:  50.72°N, 127.5°W
Report Text: CYZT 241500Z 10016G23KT 15SM -RA OVC035 07/06 A3004 RMK SC8 SLP173
Loading
Personal Weather Stations






























Interactive Weather Map New forecast layout! Learn more

10-Day Weather Forecast

Advertisements
Track Severe Weather on mobile